Aviation Digital Data Service (ADDS)

Output produced by METARs form (1201 UTC 26 March 2019)
found at http://www.aviationweather.gov/metar/data/
 
FTTC 261100Z 14006KT 8000 NSC 38/// Q1012
FTTY 261100Z 04016KT CAVOK 30/01 Q1016
FTTD 260800Z 36012KT 6000 NSC 29/16 Q1012
FTTJ 261100Z 35012KT 350V070 8000 NSC 37/01 Q1012 NOSIG
TAF AMD FTTJ 261100Z 2612/2718 04012KT 4000 DU NSC 
     TEMPO 2617/2620 1500 
     TEMPO 2705/2710 0800
       
FTTA 261100Z 18008KT CAVOK 38/16 Q1010